createdAt,value
2022-09-11T00:01:14.097Z,15.88
2022-09-11T00:03:42.574Z,16.25
2022-09-11T00:06:12.693Z,15.88
2022-09-11T00:08:40.909Z,16.83
2022-09-11T00:11:10.933Z,16.40
2022-09-11T00:13:39.580Z,15.02
2022-09-11T00:16:08.119Z,17.27
2022-09-11T00:18:38.127Z,15.73
2022-09-11T00:21:06.065Z,16.38
2022-09-11T00:23:32.557Z,16.45
2022-09-11T00:26:02.586Z,16.45
2022-09-11T00:28:29.614Z,16.08
2022-09-11T00:31:05.246Z,15.32
2022-09-11T00:33:33.527Z,15.80
2022-09-11T00:36:03.958Z,16.73
2022-09-11T00:38:32.576Z,16.48
2022-09-11T00:41:00.777Z,14.65
2022-09-11T00:43:28.858Z,15.25
2022-09-11T00:46:02.917Z,15.70
2022-09-11T00:48:36.133Z,15.15
2022-09-11T00:51:04.449Z,14.48
2022-09-11T00:53:33.765Z,15.35
2022-09-11T00:56:03.158Z,15.55
2022-09-11T00:58:34.001Z,14.40
2022-09-11T01:01:01.811Z,15.70
2022-09-11T01:03:28.991Z,17.00
2022-09-11T01:05:57.019Z,15.85
2022-09-11T01:08:23.530Z,17.52
2022-09-11T01:11:14.417Z,16.98
2022-09-11T01:13:51.750Z,15.27
2022-09-11T01:16:49.268Z,16.00
2022-09-11T01:19:41.950Z,14.10
2022-09-11T01:22:17.175Z,14.60
2022-09-11T01:25:10.912Z,14.38
2022-09-11T01:27:45.610Z,14.35
2022-09-11T01:30:13.791Z,13.82
2022-09-11T01:33:17.882Z,13.15
2022-09-11T01:35:54.510Z,12.52
2022-09-11T01:38:43.227Z,10.48
2022-09-11T01:41:16.402Z,11.45
2022-09-11T01:43:57.655Z,14.68
2022-09-11T01:46:28.218Z,14.38
2022-09-11T01:49:02.966Z,13.98
2022-09-11T01:51:32.557Z,14.65
2022-09-11T01:54:01.283Z,18.60
2022-09-11T01:56:36.524Z,22.35
2022-09-11T01:59:06.785Z,23.10
2022-09-11T02:01:36.850Z,24.55
2022-09-11T02:04:07.432Z,24.65
2022-09-11T02:06:47.884Z,25.45
2022-09-11T02:09:18.964Z,21.33
2022-09-11T02:11:49.556Z,21.75
2022-09-11T02:14:32.229Z,21.08
2022-09-11T02:17:09.649Z,19.23
2022-09-11T02:19:36.417Z,19.73
2022-09-11T02:22:02.883Z,17.85
2022-09-11T02:24:29.308Z,20.02
2022-09-11T02:27:01.705Z,19.77
2022-09-11T02:29:28.370Z,19.48
2022-09-11T02:31:55.660Z,20.00
2022-09-11T02:34:27.824Z,20.83
2022-09-11T02:37:03.651Z,19.42
2022-09-11T02:39:54.363Z,21.30
2022-09-11T02:42:58.365Z,23.05
2022-09-11T02:45:43.236Z,20.17
2022-09-11T02:48:41.881Z,22.40
2022-09-11T02:51:21.798Z,23.88
2022-09-11T02:54:09.475Z,24.90
2022-09-11T02:56:43.390Z,24.35
2022-09-11T02:59:17.679Z,22.95
2022-09-11T03:01:49.584Z,22.30
2022-09-11T03:04:18.213Z,20.55
2022-09-11T03:06:45.130Z,21.02
2022-09-11T03:09:11.531Z,21.75
2022-09-11T03:11:38.695Z,22.25
2022-09-11T03:14:05.070Z,21.98
2022-09-11T03:16:31.500Z,22.52
2022-09-11T03:18:57.979Z,21.65
2022-09-11T03:21:24.433Z,22.52
2022-09-11T03:23:50.875Z,23.38
2022-09-11T03:26:17.369Z,22.65
2022-09-11T03:28:44.353Z,23.48
2022-09-11T03:31:10.871Z,22.13
2022-09-11T03:33:37.479Z,21.33
2022-09-11T03:36:04.168Z,20.55
2022-09-11T03:38:30.762Z,19.15
2022-09-11T03:40:58.333Z,20.80
2022-09-11T03:43:24.812Z,20.15
2022-09-11T03:45:52.096Z,18.98
2022-09-11T03:48:18.834Z,19.45
2022-09-11T03:50:45.870Z,17.98
2022-09-11T03:53:12.691Z,18.30
2022-09-11T03:55:39.114Z,17.98
2022-09-11T03:58:07.172Z,17.25
2022-09-11T04:00:33.746Z,20.33
2022-09-11T04:03:00.412Z,21.38
2022-09-11T04:05:26.833Z,19.42
2022-09-11T04:07:53.870Z,16.77
2022-09-11T04:10:20.897Z,15.20
2022-09-11T04:12:48.191Z,14.70
2022-09-11T04:15:14.974Z,14.52
2022-09-11T04:17:41.630Z,13.98
2022-09-11T04:20:08.630Z,14.93
2022-09-11T04:22:35.038Z,15.02
2022-09-11T04:25:02.084Z,14.52
2022-09-11T04:27:28.459Z,16.02
2022-09-11T04:29:54.959Z,15.60
2022-09-11T04:32:22.218Z,15.40
2022-09-11T04:34:48.597Z,17.30
2022-09-11T04:37:16.055Z,16.40
2022-09-11T04:39:43.021Z,16.20
2022-09-11T04:42:10.477Z,17.05
2022-09-11T04:44:37.300Z,16.35
2022-09-11T04:47:03.821Z,15.48
2022-09-11T04:49:30.473Z,15.52
2022-09-11T04:51:57.885Z,14.88
2022-09-11T04:54:24.321Z,13.23
2022-09-11T04:56:50.918Z,14.60
2022-09-11T04:59:20.361Z,14.63
2022-09-11T05:01:46.826Z,13.68
2022-09-11T05:04:14.859Z,14.48
2022-09-11T05:06:42.810Z,15.63
2022-09-11T05:09:10.263Z,16.27
2022-09-11T05:11:38.285Z,16.60
2022-09-11T05:14:05.180Z,15.77
2022-09-11T05:16:34.394Z,16.55
2022-09-11T05:19:02.208Z,16.77
2022-09-11T05:21:28.827Z,16.10
2022-09-11T05:23:57.940Z,15.80
2022-09-11T05:26:26.742Z,14.98
2022-09-11T05:28:57.477Z,14.23
2022-09-11T05:31:25.576Z,14.13
2022-09-11T05:33:54.603Z,13.85
2022-09-11T05:36:21.113Z,13.48
2022-09-11T05:38:47.588Z,14.23
2022-09-11T05:41:15.149Z,12.68
2022-09-11T05:43:43.257Z,12.88
2022-09-11T05:46:15.295Z,12.95
2022-09-11T05:48:42.518Z,12.82
2022-09-11T05:51:14.282Z,13.35
2022-09-11T05:53:41.393Z,12.98
2022-09-11T05:56:13.296Z,13.95
2022-09-11T05:58:40.263Z,11.90
2022-09-11T06:01:09.956Z,12.93
2022-09-11T06:03:37.377Z,12.40
2022-09-11T06:06:06.407Z,14.10
2022-09-11T06:08:34.610Z,14.77
2022-09-11T06:11:03.178Z,14.45
2022-09-11T06:13:31.066Z,14.55
2022-09-11T06:15:57.569Z,14.70
2022-09-11T06:18:24.069Z,14.32
2022-09-11T06:21:01.929Z,14.60
2022-09-11T06:23:29.674Z,14.10
2022-09-11T06:26:06.040Z,14.82
2022-09-11T06:28:32.577Z,13.98
2022-09-11T06:30:59.056Z,13.52
2022-09-11T06:33:25.460Z,13.82
2022-09-11T06:36:04.017Z,13.60
2022-09-11T06:38:33.710Z,12.98
2022-09-11T06:41:05.554Z,13.65
2022-09-11T06:43:32.542Z,13.20
2022-09-11T06:46:16.594Z,12.88
2022-09-11T06:48:46.811Z,13.43
2022-09-11T06:51:15.642Z,13.45
2022-09-11T06:53:42.726Z,14.40
2022-09-11T06:56:14.874Z,14.35
2022-09-11T06:58:41.348Z,13.45
2022-09-11T07:01:11.348Z,13.00
2022-09-11T07:03:38.056Z,12.95
2022-09-11T07:06:06.297Z,13.65
2022-09-11T07:08:32.794Z,13.05
2022-09-11T07:11:04.689Z,11.35
2022-09-11T07:13:35.513Z,12.32
2022-09-11T07:16:06.374Z,12.18
2022-09-11T07:18:37.418Z,11.15
2022-09-11T07:21:16.246Z,11.30
2022-09-11T07:23:46.105Z,10.60
2022-09-11T07:26:13.270Z,10.35
2022-09-11T07:28:40.156Z,10.02
2022-09-11T07:31:19.983Z,10.30
2022-09-11T07:33:48.713Z,9.27
2022-09-11T07:36:17.741Z,9.20
2022-09-11T07:38:47.047Z,9.43
2022-09-11T07:41:15.018Z,9.55
2022-09-11T07:43:42.485Z,8.57
2022-09-11T07:46:10.298Z,9.40
2022-09-11T07:48:36.797Z,8.07
2022-09-11T07:51:05.910Z,8.38
2022-09-11T07:53:53.488Z,9.02
2022-09-11T07:56:23.925Z,8.57
2022-09-11T07:58:52.297Z,8.55
2022-09-11T08:01:22.760Z,8.52
2022-09-11T08:04:01.368Z,8.48
2022-09-11T08:06:30.166Z,8.75
2022-09-11T08:09:00.075Z,9.45
2022-09-11T08:11:28.499Z,9.57
2022-09-11T08:13:55.787Z,8.77
2022-09-11T08:16:24.766Z,8.90
2022-09-11T08:18:52.082Z,8.98
2022-09-11T08:21:19.269Z,9.00
2022-09-11T08:23:46.338Z,8.20
2022-09-11T08:26:28.502Z,7.53
2022-09-11T08:28:56.921Z,8.32
2022-09-11T08:31:26.885Z,8.27
2022-09-11T08:33:54.942Z,7.72
2022-09-11T08:36:22.627Z,7.00
2022-09-11T08:38:49.074Z,7.95
2022-09-11T08:41:41.269Z,7.85
2022-09-11T08:44:17.658Z,8.57
2022-09-11T08:46:55.781Z,8.13
2022-09-11T08:49:29.181Z,8.55
2022-09-11T08:52:01.013Z,8.15
2022-09-11T08:54:32.298Z,8.38
2022-09-11T08:57:10.088Z,7.88
2022-09-11T09:00:04.896Z,8.27
2022-09-11T09:02:52.489Z,9.35
2022-09-11T09:05:25.044Z,8.75
2022-09-11T09:07:59.115Z,8.27
2022-09-11T09:10:52.104Z,9.07
2022-09-11T09:13:25.858Z,9.02
2022-09-11T09:16:11.641Z,8.90
2022-09-11T09:18:46.154Z,8.45
2022-09-11T09:21:20.213Z,8.02
2022-09-11T09:23:53.939Z,7.63
2022-09-11T09:26:20.878Z,8.50
2022-09-11T09:28:50.821Z,8.68
2022-09-11T09:31:22.616Z,8.00
2022-09-11T09:34:12.965Z,7.85
2022-09-11T09:37:17.956Z,7.32
2022-09-11T09:39:45.575Z,7.60
2022-09-11T09:42:34.020Z,7.30
2022-09-11T09:45:31.462Z,6.90
2022-09-11T09:47:58.342Z,7.07
2022-09-11T09:50:29.726Z,7.57
2022-09-11T09:53:10.558Z,7.50
2022-09-11T09:55:39.535Z,6.80
2022-09-11T09:58:07.384Z,6.78
2022-09-11T10:00:37.124Z,6.88
2022-09-11T10:03:24.340Z,6.70
2022-09-11T10:05:54.558Z,7.45
2022-09-11T10:08:35.556Z,7.03
2022-09-11T10:11:07.788Z,8.07
2022-09-11T10:13:38.266Z,9.82
2022-09-11T10:16:20.792Z,8.27
2022-09-11T10:18:47.322Z,8.52
2022-09-11T10:21:16.638Z,10.07
2022-09-11T10:23:59.818Z,9.93
2022-09-11T10:26:46.075Z,9.63
2022-09-11T10:29:24.383Z,8.52
2022-09-11T10:31:59.535Z,10.32
2022-09-11T10:34:28.195Z,8.48
2022-09-11T10:37:14.502Z,8.30
2022-09-11T10:39:44.070Z,8.20
2022-09-11T10:42:22.191Z,9.68
2022-09-11T10:44:51.969Z,8.95
2022-09-11T10:47:22.104Z,8.43
2022-09-11T10:49:49.754Z,8.70
2022-09-11T10:52:19.366Z,8.40
2022-09-11T10:55:07.044Z,7.80
2022-09-11T10:57:52.082Z,7.65
2022-09-11T11:00:31.970Z,7.88
2022-09-11T11:03:06.230Z,8.38
2022-09-11T11:05:44.438Z,7.35
2022-09-11T11:08:44.200Z,7.78
2022-09-11T11:11:32.426Z,6.63
2022-09-11T11:14:27.193Z,7.18
2022-09-11T11:17:04.601Z,6.57
2022-09-11T11:19:43.925Z,6.22
2022-09-11T11:22:28.701Z,6.53
2022-09-11T11:25:16.689Z,7.03
2022-09-11T11:28:21.873Z,7.07
2022-09-11T11:30:57.329Z,6.00
2022-09-11T11:33:38.180Z,6.28
2022-09-11T11:36:11.995Z,6.47
2022-09-11T11:38:46.885Z,5.80
2022-09-11T11:41:25.385Z,5.57
2022-09-11T11:43:54.078Z,5.40
2022-09-11T11:46:35.461Z,5.80
2022-09-11T11:49:10.797Z,5.10
2022-09-11T11:51:54.108Z,5.13
2022-09-11T11:54:30.220Z,4.50
2022-09-11T11:57:05.037Z,4.68
2022-09-11T11:59:40.393Z,4.07
2022-09-11T12:02:09.622Z,3.63
2022-09-11T12:05:07.594Z,4.38
2022-09-11T12:07:39.398Z,3.72
2022-09-11T12:10:08.086Z,4.10
2022-09-11T12:12:50.161Z,4.10
2022-09-11T12:15:22.101Z,4.50
2022-09-11T12:18:17.855Z,4.13
2022-09-11T12:20:45.917Z,3.95
2022-09-11T12:23:30.349Z,3.47
2022-09-11T12:26:23.234Z,3.33
2022-09-11T12:29:13.072Z,3.13
2022-09-11T12:31:51.657Z,3.63
2022-09-11T12:34:40.235Z,3.33
2022-09-11T12:37:13.963Z,2.85
2022-09-11T12:39:53.097Z,2.88
2022-09-11T12:42:25.763Z,2.95
2022-09-11T12:44:52.206Z,2.90
2022-09-11T12:47:32.709Z,2.33
2022-09-11T12:50:17.677Z,2.28
2022-09-11T12:52:47.782Z,1.90
2022-09-11T12:56:02.205Z,2.17
2022-09-11T12:58:37.805Z,1.67
2022-09-11T13:01:10.087Z,1.65
2022-09-11T13:03:39.664Z,1.77
2022-09-11T13:06:10.305Z,1.55
2022-09-11T13:08:45.985Z,1.77
2022-09-11T13:11:34.327Z,1.88
2022-09-11T13:14:01.318Z,1.35
2022-09-11T13:16:31.143Z,1.40
2022-09-11T13:19:19.711Z,1.25
2022-09-11T13:21:49.546Z,1.73
2022-09-11T13:24:21.843Z,1.45
2022-09-11T13:26:55.133Z,1.67
2022-09-11T13:29:25.144Z,1.88
2022-09-11T13:31:51.585Z,2.08
2022-09-11T13:34:23.382Z,1.73
2022-09-11T13:36:54.596Z,2.15
2022-09-11T13:39:25.157Z,1.85
2022-09-11T13:42:00.052Z,1.38
2022-09-11T13:44:46.408Z,1.52
2022-09-11T13:47:27.250Z,1.80
2022-09-11T13:49:57.202Z,1.55
2022-09-11T13:52:26.646Z,1.50
2022-09-11T13:54:55.090Z,1.65
2022-09-11T13:57:23.385Z,1.30
2022-09-11T13:59:51.938Z,1.65
2022-09-11T14:02:47.776Z,1.63
2022-09-11T14:05:16.687Z,1.30
2022-09-11T14:07:53.412Z,1.50
2022-09-11T14:10:33.290Z,1.50
2022-09-11T14:13:24.134Z,1.70
2022-09-11T14:15:53.862Z,1.23
2022-09-11T14:18:46.492Z,1.60
2022-09-11T14:21:17.054Z,1.20
2022-09-11T14:23:49.773Z,1.23
2022-09-11T14:26:22.124Z,1.23
2022-09-11T14:28:51.444Z,1.60
2022-09-11T14:31:31.822Z,1.30
2022-09-11T14:34:24.997Z,1.67
2022-09-11T14:36:59.058Z,1.10
2022-09-11T14:39:38.263Z,1.38
2022-09-11T14:42:09.127Z,1.38
2022-09-11T14:44:39.455Z,1.30
2022-09-11T14:47:06.270Z,1.40
2022-09-11T14:49:32.911Z,1.23
2022-09-11T14:52:00.763Z,1.60
2022-09-11T14:54:31.088Z,1.83
2022-09-11T14:56:59.225Z,1.95
2022-09-11T14:59:28.979Z,1.73
2022-09-11T15:01:58.436Z,1.30
2022-09-11T15:04:24.884Z,1.40
2022-09-11T15:06:53.108Z,1.30
2022-09-11T15:09:19.669Z,1.40
2022-09-11T15:11:46.102Z,1.67
2022-09-11T15:14:27.517Z,1.55
2022-09-11T15:17:03.144Z,1.50
2022-09-11T15:19:30.625Z,1.60
2022-09-11T15:21:58.387Z,1.40
2022-09-11T15:24:26.074Z,1.30
2022-09-11T15:26:52.976Z,1.60
2022-09-11T15:29:20.913Z,1.42
2022-09-11T15:31:48.499Z,1.27
2022-09-11T15:34:16.706Z,1.25
2022-09-11T15:36:43.518Z,1.40
2022-09-11T15:39:15.423Z,1.40
2022-09-11T15:41:42.803Z,1.15
2022-09-11T15:44:10.902Z,1.45
2022-09-11T15:46:37.625Z,1.30
2022-09-11T15:49:04.226Z,1.60
2022-09-11T15:51:30.981Z,1.50
2022-09-11T15:54:02.619Z,1.70
2022-09-11T15:56:29.289Z,1.52
2022-09-11T15:59:00.227Z,1.40
2022-09-11T16:01:28.999Z,1.45
2022-09-11T16:03:58.021Z,1.30
2022-09-11T16:06:26.319Z,1.40
2022-09-11T16:08:57.171Z,1.42
2022-09-11T16:11:24.586Z,1.58
2022-09-11T16:13:54.950Z,1.65
2022-09-11T16:16:21.394Z,1.90
2022-09-11T16:18:47.833Z,1.60
2022-09-11T16:21:15.862Z,1.40
2022-09-11T16:23:44.152Z,1.50
2022-09-11T16:26:13.177Z,1.50
2022-09-11T16:28:40.589Z,1.90
2022-09-11T16:31:07.645Z,1.60
2022-09-11T16:33:40.474Z,1.90
2022-09-11T16:36:08.868Z,1.50
2022-09-11T16:38:37.561Z,1.63
2022-09-11T16:41:14.044Z,1.40
2022-09-11T16:43:42.524Z,1.50
2022-09-11T16:46:09.260Z,1.67
2022-09-11T16:48:38.483Z,2.00
2022-09-11T16:51:06.237Z,1.75
2022-09-11T16:53:34.371Z,1.50
2022-09-11T16:56:05.346Z,1.65
2022-09-11T16:58:34.117Z,1.67
2022-09-11T17:01:05.329Z,1.60
2022-09-11T17:03:31.861Z,1.50
2022-09-11T17:05:58.304Z,1.70
2022-09-11T17:08:24.846Z,1.75
2022-09-11T17:10:56.246Z,2.13
2022-09-11T17:13:23.241Z,1.95
2022-09-11T17:15:49.859Z,2.13
2022-09-11T17:18:17.319Z,1.80
2022-09-11T17:20:43.865Z,1.58
2022-09-11T17:23:11.249Z,2.10
2022-09-11T17:25:39.541Z,2.28
2022-09-11T17:28:07.160Z,3.13
2022-09-11T17:30:37.406Z,2.97
2022-09-11T17:33:03.907Z,2.70
2022-09-11T17:35:31.650Z,3.03
2022-09-11T17:37:58.673Z,2.80
2022-09-11T17:40:25.053Z,2.60
2022-09-11T17:42:51.469Z,2.92
2022-09-11T17:45:17.867Z,2.88
2022-09-11T17:47:44.450Z,2.90
2022-09-11T17:50:11.113Z,3.53
2022-09-11T17:52:37.686Z,3.70
2022-09-11T17:55:05.224Z,3.33
2022-09-11T17:57:32.310Z,3.72
2022-09-11T17:59:59.737Z,3.38
2022-09-11T18:02:26.815Z,3.25
2022-09-11T18:04:53.229Z,3.15
2022-09-11T18:07:19.663Z,3.08
2022-09-11T18:09:46.908Z,3.22
2022-09-11T18:12:14.583Z,3.35
2022-09-11T18:14:43.248Z,3.78
2022-09-11T18:17:10.234Z,4.03
2022-09-11T18:19:38.848Z,4.22
2022-09-11T18:22:10.049Z,3.42
2022-09-11T18:24:36.730Z,3.80
2022-09-11T18:27:03.596Z,3.83
2022-09-11T18:29:30.541Z,4.03
2022-09-11T18:31:57.610Z,4.18
2022-09-11T18:34:26.564Z,4.22
2022-09-11T18:36:53.080Z,4.30
2022-09-11T18:39:21.084Z,3.83
2022-09-11T18:41:48.789Z,3.63
2022-09-11T18:44:19.834Z,3.80
2022-09-11T18:46:47.540Z,3.50
2022-09-11T18:49:15.578Z,3.38
2022-09-11T18:51:42.473Z,3.83
2022-09-11T18:54:17.664Z,4.05
2022-09-11T18:56:44.528Z,4.30
2022-09-11T18:59:11.977Z,3.75
2022-09-11T19:01:39.835Z,3.70
2022-09-11T19:04:11.086Z,3.53
2022-09-11T19:06:40.947Z,3.92
2022-09-11T19:09:10.425Z,3.63
2022-09-11T19:11:37.521Z,3.95
2022-09-11T19:14:06.533Z,4.38
2022-09-11T19:16:34.004Z,3.70
2022-09-11T19:19:00.521Z,4.07
2022-09-11T19:21:27.569Z,4.72
2022-09-11T19:23:57.916Z,4.15
2022-09-11T19:26:38.819Z,4.25
2022-09-11T19:29:06.415Z,4.45
2022-09-11T19:31:33.807Z,4.15
2022-09-11T19:34:01.581Z,4.40
2022-09-11T19:36:31.034Z,4.43
2022-09-11T19:39:00.438Z,5.40
2022-09-11T19:41:32.470Z,4.82
2022-09-11T19:44:01.529Z,5.03
2022-09-11T19:46:29.395Z,5.03
2022-09-11T19:48:57.850Z,4.30
2022-09-11T19:51:27.301Z,4.28
2022-09-11T19:54:00.190Z,5.05
2022-09-11T19:56:27.586Z,4.88
2022-09-11T19:58:55.844Z,4.72
2022-09-11T20:01:23.938Z,4.88
2022-09-11T20:03:55.530Z,4.38
2022-09-11T20:06:24.511Z,5.38
2022-09-11T20:09:07.685Z,4.93
2022-09-11T20:11:38.985Z,4.82
2022-09-11T20:14:06.206Z,5.13
2022-09-11T20:16:32.866Z,4.97
2022-09-11T20:19:06.419Z,4.57
2022-09-11T20:21:35.272Z,4.97
2022-09-11T20:24:02.635Z,5.40
2022-09-11T20:26:30.172Z,4.78
2022-09-11T20:29:01.961Z,4.90
2022-09-11T20:31:31.667Z,5.57
2022-09-11T20:34:00.679Z,4.78
2022-09-11T20:36:29.822Z,4.82
2022-09-11T20:38:58.374Z,5.22
2022-09-11T20:41:28.842Z,5.22
2022-09-11T20:43:56.798Z,5.00
2022-09-11T20:46:23.306Z,5.07
2022-09-11T20:48:53.097Z,4.82
2022-09-11T20:51:21.320Z,4.95
2022-09-11T20:53:48.369Z,5.05
2022-09-11T20:56:17.438Z,5.50
2022-09-11T20:58:44.411Z,5.72
2022-09-11T21:01:17.491Z,5.43
2022-09-11T21:03:52.081Z,5.03
2022-09-11T21:06:24.748Z,5.40
2022-09-11T21:08:58.820Z,5.70
2022-09-11T21:11:27.122Z,5.30
2022-09-11T21:13:53.833Z,5.20
2022-09-11T21:16:21.045Z,5.45
2022-09-11T21:18:52.847Z,5.57
2022-09-11T21:21:20.843Z,5.28
2022-09-11T21:23:47.831Z,5.85
2022-09-11T21:26:16.214Z,6.63
2022-09-11T21:28:43.494Z,5.38
2022-09-11T21:31:09.933Z,5.85
2022-09-11T21:33:36.938Z,6.35
2022-09-11T21:36:04.718Z,5.65
2022-09-11T21:38:31.501Z,5.50
2022-09-11T21:41:00.124Z,5.95
2022-09-11T21:43:27.626Z,5.65
2022-09-11T21:45:54.283Z,5.45
2022-09-11T21:48:20.860Z,6.32
2022-09-11T21:50:47.453Z,6.30
2022-09-11T21:53:14.155Z,6.35
2022-09-11T21:55:42.511Z,6.13
2022-09-11T21:58:14.785Z,6.38
2022-09-11T22:00:43.225Z,6.72
2022-09-11T22:03:12.240Z,5.65
2022-09-11T22:05:43.505Z,6.43
2022-09-11T22:08:12.563Z,6.00
2022-09-11T22:10:48.730Z,6.05
2022-09-11T22:13:17.044Z,5.90
2022-09-11T22:15:48.322Z,6.40
2022-09-11T22:18:15.846Z,5.55
2022-09-11T22:20:42.623Z,6.28
2022-09-11T22:23:14.166Z,6.97
2022-09-11T22:25:40.906Z,6.97
2022-09-11T22:28:07.671Z,7.13
2022-09-11T22:30:34.232Z,7.97
2022-09-11T22:33:00.609Z,8.27
2022-09-11T22:35:27.486Z,7.22
2022-09-11T22:37:54.115Z,7.43
2022-09-11T22:40:20.519Z,7.85
2022-09-11T22:42:46.995Z,7.72
2022-09-11T22:45:13.447Z,8.27
2022-09-11T22:47:39.818Z,8.00
2022-09-11T22:50:06.779Z,8.85
2022-09-11T22:52:33.375Z,7.68
2022-09-11T22:55:00.128Z,8.60
2022-09-11T22:57:29.096Z,8.00
2022-09-11T22:59:56.114Z,8.40
2022-09-11T23:02:22.561Z,7.93
2022-09-11T23:05:07.291Z,7.97
2022-09-11T23:07:34.021Z,7.25
2022-09-11T23:10:01.835Z,7.78
2022-09-11T23:12:28.255Z,7.35
2022-09-11T23:14:54.717Z,9.13
2022-09-11T23:17:21.132Z,8.43
2022-09-11T23:19:48.028Z,7.95
2022-09-11T23:22:14.429Z,7.90
2022-09-11T23:24:40.824Z,7.15
2022-09-11T23:27:07.225Z,7.75
2022-09-11T23:29:33.777Z,8.18
2022-09-11T23:32:00.176Z,7.80
2022-09-11T23:34:26.563Z,8.32
2022-09-11T23:36:53.045Z,8.82
2022-09-11T23:39:19.473Z,8.38
2022-09-11T23:41:45.889Z,7.80
2022-09-11T23:44:12.273Z,9.25
2022-09-11T23:46:38.658Z,9.57
2022-09-11T23:49:06.371Z,8.50
2022-09-11T23:51:32.982Z,7.88
2022-09-11T23:53:59.350Z,8.75
2022-09-11T23:56:25.705Z,9.60
2022-09-11T23:58:52.255Z,8.60
